createdAt,value
2023-05-05T05:47:00.886Z,67.99
2023-05-05T05:52:03.095Z,67.62
2023-05-05T05:57:05.178Z,67.27
2023-05-05T06:02:07.837Z,66.24
2023-05-05T06:07:10.000Z,63.59
2023-05-05T06:12:12.091Z,60.31
2023-05-05T06:17:14.263Z,59.26
2023-05-05T06:22:16.467Z,60.37
2023-05-05T06:27:18.499Z,58.44
2023-05-05T06:32:20.663Z,59.74
2023-05-05T06:37:22.797Z,58.63
2023-05-05T06:42:24.844Z,57.81
2023-05-05T06:47:26.937Z,56.73
2023-05-05T06:52:29.217Z,57.16
2023-05-05T06:57:31.362Z,55.88
2023-05-05T07:02:33.911Z,54.22
2023-05-05T07:07:36.509Z,54.74
2023-05-05T07:12:38.650Z,54.26
2023-05-05T07:17:41.172Z,54.92
2023-05-05T07:22:43.241Z,54.25
2023-05-05T07:27:45.434Z,52.81
2023-05-05T07:32:47.793Z,52.46
2023-05-05T07:37:49.934Z,51.40
2023-05-05T07:42:52.280Z,50.77
2023-05-05T07:47:54.568Z,51.56
2023-05-05T07:53:06.181Z,51.32
2023-05-05T07:58:16.174Z,50.89
2023-05-05T08:03:20.523Z,50.23
2023-05-05T08:08:24.974Z,49.74
2023-05-05T08:13:28.786Z,49.66
2023-05-05T08:18:30.881Z,49.17
2023-05-05T08:23:36.249Z,49.00
2023-05-05T08:28:38.331Z,48.17
2023-05-05T08:33:40.422Z,49.11
2023-05-05T08:38:42.489Z,48.44
2023-05-05T08:43:46.873Z,47.90
2023-05-05T08:48:51.791Z,46.98
2023-05-05T08:54:07.000Z,46.81
2023-05-05T08:59:11.909Z,46.49
2023-05-05T09:04:14.305Z,45.24
2023-05-05T09:09:17.532Z,45.76
2023-05-05T09:14:19.622Z,44.02
2023-05-05T09:19:21.670Z,43.68
2023-05-05T09:24:23.992Z,42.97
2023-05-05T09:29:26.295Z,41.26
2023-05-05T09:34:28.718Z,40.85
2023-05-05T09:39:30.818Z,41.24
2023-05-05T09:44:37.652Z,38.80
2023-05-05T09:49:39.842Z,37.78
2023-05-05T09:54:43.353Z,38.03
2023-05-05T09:59:56.962Z,36.36
2023-05-05T10:05:05.258Z,36.52
2023-05-05T10:10:12.559Z,37.47
2023-05-05T10:15:15.660Z,37.77
2023-05-05T10:20:19.253Z,37.66
2023-05-05T10:25:33.696Z,35.87
2023-05-05T10:30:44.168Z,35.51
2023-05-05T10:35:52.787Z,34.88
2023-05-05T10:40:56.495Z,34.00
2023-05-05T10:45:59.510Z,34.09
2023-05-05T10:51:40.116Z,33.66
2023-05-05T10:56:43.468Z,33.56
2023-05-05T11:01:45.993Z,33.06
2023-05-05T11:07:12.664Z,32.59
2023-05-05T11:12:16.892Z,31.29
2023-05-05T11:17:44.245Z,31.55
2023-05-05T11:23:05.011Z,30.49
2023-05-05T11:28:18.298Z,31.10
2023-05-05T11:33:31.042Z,30.73
2023-05-05T11:38:48.180Z,29.73
2023-05-05T11:43:50.414Z,29.45
2023-05-05T11:48:53.552Z,29.40
2023-05-05T11:53:57.855Z,29.15
2023-05-05T11:59:09.874Z,28.88
2023-05-05T12:04:13.015Z,28.72
2023-05-05T12:09:22.667Z,27.44
2023-05-05T12:14:25.771Z,27.55
2023-05-05T12:19:33.440Z,26.87
2023-05-05T12:24:35.679Z,26.14
2023-05-05T12:29:37.988Z,26.47
2023-05-05T12:34:40.073Z,26.95
2023-05-05T12:39:42.253Z,27.76
2023-05-05T12:44:44.916Z,26.72
2023-05-05T12:49:51.787Z,27.11
2023-05-05T12:55:00.186Z,26.94
2023-05-05T13:00:14.771Z,26.46
2023-05-05T13:05:29.571Z,26.13
2023-05-05T13:10:31.733Z,26.24
2023-05-05T13:15:33.908Z,27.08
2023-05-05T13:20:36.019Z,26.01
2023-05-05T13:25:38.094Z,25.98
2023-05-05T13:30:41.855Z,25.84
2023-05-05T13:35:43.922Z,25.98
2023-05-05T13:40:46.136Z,26.01
2023-05-05T13:45:48.283Z,24.61
2023-05-05T13:50:50.492Z,24.69
2023-05-05T13:55:52.617Z,24.51
2023-05-05T14:00:55.398Z,24.94
2023-05-05T14:05:57.534Z,24.89
2023-05-05T14:10:59.631Z,25.48
2023-05-05T14:16:01.720Z,24.97
2023-05-05T14:21:03.910Z,24.87
2023-05-05T14:26:06.035Z,24.83
2023-05-05T14:31:08.127Z,24.33
2023-05-05T14:36:10.304Z,23.92
2023-05-05T14:41:12.364Z,24.26
2023-05-05T14:46:14.603Z,24.16
2023-05-05T14:51:16.904Z,24.79
2023-05-05T14:56:21.828Z,24.95
2023-05-05T15:01:25.776Z,25.34
2023-05-05T15:06:28.138Z,24.62
2023-05-05T15:11:30.239Z,24.77
2023-05-05T15:16:34.546Z,24.75
2023-05-05T15:21:37.362Z,25.33
2023-05-05T15:26:39.452Z,25.49
2023-05-05T15:31:41.771Z,26.24
2023-05-05T15:36:43.922Z,26.18
2023-05-05T15:41:45.985Z,26.41
2023-05-05T15:46:50.385Z,27.45
2023-05-05T15:51:52.688Z,27.35
2023-05-05T15:56:55.042Z,28.20
2023-05-05T16:01:57.126Z,29.24
2023-05-05T16:06:59.593Z,30.07
2023-05-05T16:12:02.661Z,30.65
2023-05-05T16:17:04.774Z,30.61
2023-05-05T16:22:07.731Z,31.48
2023-05-05T16:27:09.844Z,31.40
2023-05-05T16:32:12.113Z,31.92
2023-05-05T16:37:14.148Z,32.64
2023-05-05T16:42:16.467Z,33.09
2023-05-05T16:47:18.557Z,34.36
2023-05-05T16:52:20.669Z,34.61
2023-05-05T16:57:23.120Z,34.15
2023-05-05T17:02:25.244Z,34.67
2023-05-05T17:07:27.788Z,34.93
2023-05-05T17:12:29.873Z,35.26
2023-05-05T17:17:32.018Z,35.46
2023-05-05T17:22:34.100Z,35.74
2023-05-05T17:27:36.156Z,36.87
2023-05-05T17:32:38.589Z,36.42
2023-05-05T17:37:41.173Z,37.54
2023-05-05T17:42:43.245Z,38.16
2023-05-05T17:47:45.325Z,38.56
2023-05-05T17:52:47.475Z,38.29
2023-05-05T17:57:49.595Z,39.48
2023-05-05T18:02:51.782Z,39.61
2023-05-05T18:07:54.037Z,39.54
2023-05-05T18:12:56.204Z,40.49
2023-05-05T18:17:58.300Z,40.40
2023-05-05T18:23:00.527Z,41.53
2023-05-05T18:28:02.599Z,42.41
2023-05-05T18:33:05.208Z,43.27
2023-05-05T18:38:07.347Z,43.51
2023-05-05T18:43:09.733Z,44.32
2023-05-05T18:48:11.911Z,45.15
2023-05-05T18:53:14.925Z,45.39
2023-05-05T18:58:17.542Z,46.43
2023-05-05T19:03:20.271Z,47.05
2023-05-05T19:08:22.631Z,47.45
2023-05-05T19:13:24.677Z,48.44
2023-05-05T19:18:27.070Z,48.18
2023-05-05T19:23:29.190Z,48.31
2023-05-05T19:28:31.826Z,49.26
2023-05-05T19:33:33.884Z,50.10
2023-05-05T19:38:36.605Z,50.99
2023-05-05T19:43:38.914Z,51.66
2023-05-05T19:48:40.993Z,52.48
2023-05-05T19:53:43.074Z,52.50
2023-05-05T19:59:00.440Z,53.51
2023-05-05T20:04:03.772Z,53.83
